Latest Weather Observations for Falls Creek

IDV60801

Issued at 8:32 am EDT Sunday 26 March 2017 (issued every 30 minutes, with the page automatically refreshed every 10 minutes)

About weather observations | Map of weather stations | Latest weather observations for VIC | Other Formats
Station Details ID: 083084 Name: FALLS CREEK Lat: -36.87 Lon: 147.28 Height: 1765.0 m
Data from the previous 72 hours. | See also: Recent months at Falls Creek
Date/Time
EDT
Temp
°C
App
Temp
°C
Dew
Point
°C
Rel
Hum
%
Delta-T
°C
Wind Press
QNH
hPa
Press
MSL
hPa
Rain since
9am
mm
Dir  Spd
km/h
Gust
km/h
Spd
kts
Gust
kts
26/08:30am 11.9 10.0 10.6 92 0.7 SW 11 15 6 8 1022.1 1016.2 7.6
26/08:00am 11.1 9.1 10.2 94 0.5 SW 11 15 6 8 1022.0 1016.1 7.6
26/07:30am 10.8 7.2 10.0 95 0.4 SW 19 20 10 11 1021.5 1015.6 7.6
26/07:00am 10.8 8.1 10.3 97 0.3 SW 15 17 8 9 1021.3 1015.3 7.6
26/06:30am 11.0 9.0 10.1 94 0.5 SW 11 15 6 8 1021.2 1015.2 7.6
26/06:00am 10.9 9.2 9.8 93 0.6 SW 9 11 5 6 1020.9 1014.9 7.6
26/05:30am 10.9 8.5 10.0 94 0.5 SW 13 17 7 9 1020.7 1014.7 7.6
26/05:00am 10.9 9.2 10.0 94 0.5 SSW 9 13 5 7 1020.6 1014.6 7.6
26/04:30am 10.9 9.1 9.3 90 0.9 SSW 9 15 5 8 1020.5 1014.5 7.6
26/04:00am 10.5 8.9 8.6 88 1.0 W 7 13 4 7 1020.5 1014.5 7.6
26/03:30am 10.5 8.4 8.4 87 1.1 WNW 9 15 5 8 1020.7 1014.7 7.6
26/03:00am 10.8 8.0 8.4 85 1.3 W 13 17 7 9 1021.1 1015.1 7.6
26/02:30am 10.8 7.5 7.9 82 1.6 W 15 19 8 10 1020.9 1014.9 7.6
26/02:00am 10.9 7.2 8.1 83 1.5 WNW 17 22 9 12 1020.9 1014.9 7.6
26/01:30am 11.1 7.8 8.1 82 1.6 WNW 15 17 8 9 1021.3 1015.3 7.6
26/01:00am 11.3 8.2 7.2 76 2.2 WNW 13 15 7 8 1021.2 1015.2 7.6
26/12:30am 11.8 7.8 6.5 70 2.8 W 17 19 9 10 1021.4 1015.4 7.6
26/12:00am 12.1 8.9 6.8 70 2.8 W 13 19 7 10 1021.5 1015.6 7.6
 
Date/Time
EDT
Temp
°C
App
Temp
°C
Dew
Point
°C
Rel
Hum
%
Delta-T
°C
Wind Press
QNH
hPa
Press
MSL
hPa
Rain since
9am
mm
Dir  Spd
km/h
Gust
km/h
Spd
kts
Gust
kts
25/11:30pm 12.1 8.7 7.6 74 2.4 W 15 17 8 9 1021.5 1015.6 7.6
25/11:00pm 12.5 8.6 7.0 69 2.9 WSW 17 20 9 11 1021.5 1015.6 7.6
25/10:30pm 12.6 8.0 5.8 63 3.5 WSW 19 22 10 12 1021.4 1015.4 7.6
25/10:00pm 12.2 8.2 6.5 68 3.0 SW 17 20 9 11 1021.5 1015.6 7.6
25/09:30pm 11.5 8.0 7.0 74 2.4 SW 15 19 8 10 1021.3 1015.3 7.6
25/09:00pm 11.3 7.9 7.6 78 2.0 SW 15 17 8 9 1021.1 1015.1 7.6
25/08:30pm 11.2 8.7 9.6 90 0.9 WSW 13 15 7 8 1020.6 1014.6 7.6
25/08:00pm 11.3 7.9 9.2 87 1.2 WSW 17 20 9 11 1020.2 1014.2 7.6
25/07:30pm 11.4 7.8 9.7 89 0.9 WSW 19 22 10 12 1020.2 1014.2 7.6
25/07:00pm 12.0 10.4 10.1 88 1.1 WSW 9 13 5 7 1019.9 1013.8 7.6
25/06:30pm 12.2 10.3 10.6 90 0.9 W 11 15 6 8 1019.8 1013.7 7.6
25/06:00pm 12.4 11.1 11.1 92 0.7 WSW 9 15 5 8 1019.6 1013.6 7.6
25/05:30pm 13.0 10.8 10.9 87 1.2 W 13 20 7 11 1019.5 1013.5 7.6
25/05:00pm 12.9 10.0 11.1 89 1.0 W 17 24 9 13 1019.5 1013.5 7.6
25/04:30pm 12.9 11.0 11.8 93 0.6 W 13 24 7 13 1019.5 1013.5 7.6
25/04:00pm 12.6 10.5 12.3 98 0.2 WSW 15 22 8 12 1019.5 1013.5 7.6
25/03:30pm 11.9 10.7 11.7 99 0.1 W 9 15 5 8 1019.8 1013.7 7.6
25/03:00pm 12.1 10.2 11.9 99 0.1 WNW 13 20 7 11 1020.0 1014.0 7.6
25/02:30pm 10.8 8.9 10.6 99 0.1 WNW 11 22 6 12 1020.0 1014.0 7.6
25/02:00pm 10.7 8.0 10.5 99 0.1 W 15 22 8 12 1020.1 1014.1 7.6
25/01:30pm 10.6 8.3 10.4 99 0.1 WNW 13 20 7 11 1020.2 1014.2 7.6
25/01:00pm 10.1 7.7 10.0 99 0.1 NW 13 22 7 12 1020.9 1014.9 7.4
25/12:30pm 9.8 7.3 9.7 99 0.1 NNW 13 19 7 10 1020.8 1014.8 6.2
25/12:00pm 10.1 6.9 10.0 99 0.1 NNW 17 28 9 15 1020.9 1014.9 5.4
25/11:30am 10.0 6.2 9.9 99 0.1 NNW 20 28 11 15 1021.1 1015.1 4.6
25/11:00am 9.8 6.5 9.7 99 0.1 NNW 17 26 9 14 1021.2 1015.2 4.0
25/10:30am 9.6 5.7 9.5 99 0.1 NNW 20 26 11 14 1020.9 1014.9 2.8
25/10:00am 9.5 6.2 9.4 99 0.1 NW 17 24 9 13 1021.1 1015.1 1.4
25/09:30am 10.0 5.1 9.9 99 0.1 NNW 26 37 14 20 1020.5 1014.5 0.4
25/09:00am 10.2 5.7 10.1 99 0.1 NNW 24 35 13 19 1020.3 1014.3 0.8
25/08:30am 10.1 6.4 10.0 99 0.1 NNW 20 26 11 14 1020.2 1014.2 0.4
25/08:00am 9.9 5.3 9.8 99 0.1 NW 24 32 13 17 1020.3 1014.3 0.2
25/07:30am 10.1 4.1 10.0 99 0.1 NW 32 41 17 22 1019.6 1013.6 0.2
25/07:00am 10.1 5.2 10.0 99 0.1 NW 26 35 14 19 1019.8 1013.7 0.2
25/06:30am 9.3 4.2 9.2 99 0.1 NNW 26 39 14 21 1020.0 1014.0 0.2
25/06:00am 9.3 4.2 9.2 99 0.1 NW 26 37 14 20 1019.9 1013.8 0.2
25/05:30am 9.3 4.1 8.8 97 0.3 NW 26 37 14 20 1020.1 1014.1 0.2
25/05:00am 9.4 2.9 8.8 96 0.3 NW 33 41 18 22 1019.6 1013.6 0.2
25/04:30am 9.3 3.2 8.1 92 0.6 NW 30 44 16 24 1020.0 1014.0 0.2
25/04:00am 9.3 3.6 8.4 94 0.5 NW 28 39 15 21 1020.1 1014.1 0.2
25/03:30am 9.5 4.2 8.3 92 0.6 NNW 26 37 14 20 1020.1 1014.1 0.2
25/03:00am 9.6 4.0 8.8 95 0.4 NNW 28 39 15 21 1020.3 1014.3 0.2
25/02:30am 9.4 3.9 9.3 99 0.1 NNW 28 35 15 19 1020.3 1014.3 0.2
25/02:00am 9.5 4.5 9.4 99 0.1 NNW 26 33 14 18 1021.1 1015.1 0.2
25/01:30am 9.5 4.1 9.4 99 0.1 NNW 28 43 15 23 1021.5 1015.6 0.2
25/01:00am 9.5 4.8 9.2 98 0.2 NNW 24 33 13 18 1021.8 1015.8 0.2
25/12:30am 10.2 5.3 8.5 89 0.9 NNW 24 32 13 17 1022.0 1016.1 0.2
25/12:00am 10.6 5.7 8.5 87 1.1 NNW 24 30 13 16 1022.3 1016.3 0.2
 
Date/Time
EDT
Temp
°C
App
Temp
°C
Dew
Point
°C
Rel
Hum
%
Delta-T
°C
Wind Press
QNH
hPa
Press
MSL
hPa
Rain since
9am
mm
Dir  Spd
km/h
Gust
km/h
Spd
kts
Gust
kts
24/11:30pm 10.9 6.0 8.5 85 1.3 NNW 24 33 13 18 1022.1 1016.2 0.2
24/11:00pm 11.1 6.6 8.5 84 1.4 NNW 22 30 12 16 1022.1 1016.2 0.2
24/10:30pm 10.9 6.9 8.3 84 1.4 NNW 19 26 10 14 1022.7 1016.8 0.2
24/10:00pm 10.9 6.9 8.1 83 1.5 NNW 19 22 10 12 1023.0 1017.0 0.2
24/09:30pm 10.9 6.8 7.8 81 1.7 NNW 19 22 10 12 1023.0 1017.0 0.2
24/09:00pm 10.5 7.5 7.7 83 1.5 N 13 15 7 8 1022.8 1016.9 0.2
24/08:30pm 10.4 8.3 8.3 87 1.1 N 9 11 5 6 1022.6 1016.7 0.2
24/08:00pm 10.6 8.9 8.2 85 1.3 N 7 11 4 6 1023.1 1017.2 0.2
24/07:30pm 11.1 8.6 8.0 81 1.7 N 11 15 6 8 1022.7 1016.8 0.2
24/07:00pm 11.1 8.4 9.0 87 1.1 NNE 13 15 7 8 1022.5 1016.5 0.2
24/06:30pm 11.6 9.9 9.7 88 1.1 NNE 9 13 5 7 1022.3 1016.3 0.2
24/06:00pm 12.5 11.5 10.9 90 0.9 NW 7 11 4 6 1022.4 1016.4 0.2
24/05:30pm 13.3 12.2 10.5 83 1.6 NNW 7 11 4 6 1022.3 1016.3 0.2
24/05:00pm 13.8 12.1 10.0 78 2.2 NNE 9 17 5 9 1022.4 1016.4 0.2
24/04:30pm 14.0 12.0 10.0 77 2.3 N 11 17 6 9 1022.6 1016.7 0.2
24/04:00pm 14.3 12.2 9.9 75 2.5 N 11 17 6 9 1022.5 1016.5 0.2
24/03:30pm 14.8 12.9 10.4 75 2.5 N 11 17 6 9 1022.7 1016.8 0.2
24/03:00pm 14.2 12.2 10.0 76 2.4 N 11 20 6 11 1023.1 1017.2 0.2
24/02:30pm 14.2 12.4 10.8 80 2.0 NNW 11 19 6 10 1023.4 1017.5 0.2
24/02:00pm 14.4 12.6 9.4 72 2.8 N 9 15 5 8 1023.7 1017.8 0.2
24/01:30pm 15.6 14.1 10.4 71 3.0 N 9 15 5 8 1023.8 1017.9 0.2
24/01:00pm 15.2 13.1 8.4 64 3.8 N 9 15 5 8 1024.2 1018.3 0.2
24/12:30pm 14.4 12.7 9.8 74 2.6 NNE 9 15 5 8 1024.3 1018.4 0.2
24/12:00pm 13.3 11.3 8.8 74 2.5 NNE 9 13 5 7 1024.6 1018.8 0.2
24/11:30am 13.7 12.1 8.1 69 3.1 N 6 9 3 5 1024.9 1019.0 0.2
24/11:00am 13.2 11.7 8.3 72 2.7 NNE 6 9 3 5 1025.0 1019.1 0.2
24/10:30am 13.4 11.9 8.3 71 2.8 N 6 9 3 5 1024.9 1019.0 0.2
24/10:00am 12.5 10.4 5.7 63 3.5 NNE 6 7 3 4 1024.6 1018.8 0.0
24/09:30am 11.7 9.9 5.3 65 3.3 NW 4 6 2 3 1024.5 1018.6 0.0
24/09:00am 10.8 9.6 6.6 75 2.2 N 2 6 1 3 1024.3 1018.4 6.0
24/08:30am 9.8 7.7 5.6 75 2.1 ENE 6 9 3 5 1024.0 1018.1 6.0
24/08:00am 7.9 5.0 6.5 91 0.7 ESE 11 13 6 7 1023.9 1018.0 6.0
24/07:30am 7.5 4.4 7.4 99 0.1 ESE 13 19 7 10 1023.4 1017.5 6.0
24/07:00am 6.7 3.4 6.6 99 0.1 ESE 13 19 7 10 1023.3 1017.4 6.0
24/06:30am 5.9 2.9 5.8 99 0.0 SE 11 17 6 9 1023.0 1017.0 6.0
24/06:00am 6.2 2.5 6.1 99 0.0 SSE 15 19 8 10 1023.1 1017.2 6.0
24/05:30am 6.6 2.6 6.5 99 0.1 SE 17 24 9 13 1023.1 1017.2 6.0
24/05:00am 6.6 2.6 6.5 99 0.1 SE 17 24 9 13 1023.1 1017.2 6.0
24/04:30am 6.7 2.1 6.6 99 0.1 SE 20 28 11 15 1023.2 1017.3 6.0
24/04:00am 6.7 0.6 6.6 99 0.1 SE 28 35 15 19 1023.0 1017.0 6.0
24/03:30am 6.9 2.0 6.8 99 0.1 SSE 22 30 12 16 1023.3 1017.4 6.0
24/03:00am 6.9 2.6 6.8 99 0.1 SSE 19 22 10 12 1023.9 1018.0 5.8
24/02:30am 7.1 2.6 7.0 99 0.1 SSE 20 28 11 15 1024.2 1018.3 5.8
24/02:00am 7.3 4.2 7.2 99 0.1 SE 13 20 7 11 1024.5 1018.6 5.8
24/01:30am 7.2 2.9 7.1 99 0.1 SE 19 28 10 15 1024.3 1018.4 5.6
24/01:00am 7.5 3.7 7.4 99 0.1 SE 17 26 9 14 1023.9 1018.0 5.6
24/12:30am 7.5 3.3 7.4 99 0.1 SE 19 28 10 15 1024.0 1018.1 5.4
24/12:00am 7.6 2.8 7.5 99 0.1 SE 22 33 12 18 1024.2 1018.3 5.2
 
Date/Time
EDT
Temp
°C
App
Temp
°C
Dew
Point
°C
Rel
Hum
%
Delta-T
°C
Wind Press
QNH
hPa
Press
MSL
hPa
Rain since
9am
mm
Dir  Spd
km/h
Gust
km/h
Spd
kts
Gust
kts
23/11:30pm 7.9 3.8 7.8 99 0.1 SE 19 26 10 14 1024.4 1018.5 5.0
23/11:00pm 7.9 3.8 7.8 99 0.1 SE 19 28 10 15 1024.4 1018.5 4.8
23/10:30pm 8.0 3.9 7.9 99 0.1 SE 19 30 10 16 1024.6 1018.8 4.8
23/10:00pm 8.0 3.0 7.9 99 0.1 SE 24 35 13 19 1024.3 1018.4 4.6
23/09:30pm 8.1 4.4 8.0 99 0.1 SE 17 30 9 16 1024.2 1018.3 4.6
23/09:00pm 8.1 4.0 8.0 99 0.1 SE 19 26 10 14 1023.9 1018.0 4.4
23/08:30pm 8.2 4.2 8.1 99 0.1 SE 19 32 10 17 1023.4 1017.5 4.2
23/08:00pm 8.4 4.2 8.3 99 0.1 SE 20 32 11 17 1023.3 1017.4 4.0
23/07:30pm 8.2 4.5 8.1 99 0.1 SSE 17 28 9 15 1023.2 1017.3 3.6
23/07:00pm 8.4 4.2 8.3 99 0.1 SE 20 32 11 17 1023.2 1017.3 3.6
23/06:30pm 8.6 4.5 8.5 99 0.1 SE 20 30 11 16 1023.1 1017.2 3.6
23/06:00pm 8.6 5.0 8.5 99 0.1 SE 17 28 9 15 1023.0 1017.0 3.6
23/05:30pm 8.6 4.7 8.5 99 0.1 SE 19 30 10 16 1023.1 1017.2 3.6
23/05:00pm 9.1 5.1 9.0 99 0.1 SE 20 30 11 16 1022.8 1016.9 3.6
23/04:30pm 9.1 5.7 9.0 99 0.1 SE 17 24 9 13 1023.3 1017.4 3.6
23/04:00pm 8.7 5.2 8.6 99 0.1 SE 17 26 9 14 1023.3 1017.4 3.6
23/03:30pm 8.4 4.4 8.3 99 0.1 SE 19 26 10 14 1023.3 1017.4 3.6
23/03:00pm 8.2 4.2 8.1 99 0.1 SE 19 28 10 15 1023.4 1017.5 3.4
23/02:30pm 8.2 4.2 8.1 99 0.1 SE 19 30 10 16 1023.6 1017.7 2.4
23/02:00pm 8.0 3.9 7.9 99 0.1 SE 19 28 10 15 1023.7 1017.8 2.2
23/01:30pm 8.1 4.0 8.0 99 0.1 SE 19 26 10 14 1023.9 1018.0 1.4
23/01:00pm 8.3 4.1 8.2 99 0.1 SE 20 30 11 16 1024.0 1018.1 1.4
23/12:30pm 8.6 4.5 8.5 99 0.1 SE 20 30 11 16 1024.0 1018.1 1.4
23/12:00pm 8.4 4.8 8.3 99 0.1 SE 17 26 9 14 1024.2 1018.3 1.4
23/11:30am 8.2 4.0 8.1 99 0.1 SSE 20 30 11 16 1024.3 1018.4 1.4
23/11:00am 7.8 3.7 7.7 99 0.1 SE 19 28 10 15 1024.5 1018.6 1.2
23/10:30am 7.7 3.3 7.6 99 0.1 SE 20 30 11 16 1024.3 1018.4 0.8
23/10:00am 7.7 3.3 7.6 99 0.1 SSE 20 30 11 16 1024.3 1018.4 0.2
23/09:30am 7.6 3.4 7.5 99 0.1 SSE 19 28 10 15 1024.2 1018.3 0.2
23/09:00am 7.4 3.2 7.3 99 0.1 SE 19 28 10 15 1023.9 1018.0 20.0

Other Formats:

Comma delimited format used in spreadsheet applications
http://www.bom.gov.au/fwo/IDV60801/IDV60801.94903.axf

JavaScript Object Notation format (JSON) in row-major order
http://www.bom.gov.au/fwo/IDV60801/IDV60801.94903.json